sensor_id;sensor_type;location;lat;lon;timestamp;temperature;humidity
18085;DHT22;9169;44.492;11.372;2023-11-19T00:00:27;13.30;42.00
18085;DHT22;9169;44.492;11.372;2023-11-19T00:02:56;13.20;41.90
18085;DHT22;9169;44.492;11.372;2023-11-19T00:05:25;13.30;42.00
18085;DHT22;9169;44.492;11.372;2023-11-19T00:07:55;13.20;42.00
18085;DHT22;9169;44.492;11.372;2023-11-19T00:10:23;13.20;42.00
18085;DHT22;9169;44.492;11.372;2023-11-19T00:12:53;13.20;42.00
18085;DHT22;9169;44.492;11.372;2023-11-19T00:15:24;13.20;42.00
18085;DHT22;9169;44.492;11.372;2023-11-19T00:17:53;13.20;42.00
18085;DHT22;9169;44.492;11.372;2023-11-19T00:20:22;13.20;42.00
18085;DHT22;9169;44.492;11.372;2023-11-19T00:22:50;13.20;42.10
18085;DHT22;9169;44.492;11.372;2023-11-19T00:25:20;13.20;42.10
18085;DHT22;9169;44.492;11.372;2023-11-19T00:27:48;13.10;42.10
18085;DHT22;9169;44.492;11.372;2023-11-19T00:30:19;13.10;42.30
18085;DHT22;9169;44.492;11.372;2023-11-19T00:32:48;13.10;42.40
18085;DHT22;9169;44.492;11.372;2023-11-19T00:35:16;13.10;42.40
18085;DHT22;9169;44.492;11.372;2023-11-19T00:37:45;13.10;42.50
18085;DHT22;9169;44.492;11.372;2023-11-19T00:40:15;13.10;42.50
18085;DHT22;9169;44.492;11.372;2023-11-19T00:42:45;13.10;42.60
18085;DHT22;9169;44.492;11.372;2023-11-19T00:45:15;13.00;42.60
18085;DHT22;9169;44.492;11.372;2023-11-19T00:47:45;13.00;42.60
18085;DHT22;9169;44.492;11.372;2023-11-19T00:50:13;13.00;42.70
18085;DHT22;9169;44.492;11.372;2023-11-19T00:52:42;13.00;42.80
18085;DHT22;9169;44.492;11.372;2023-11-19T00:55:11;13.00;42.80
18085;DHT22;9169;44.492;11.372;2023-11-19T00:57:40;13.00;42.80
18085;DHT22;9169;44.492;11.372;2023-11-19T01:00:10;13.00;42.90
18085;DHT22;9169;44.492;11.372;2023-11-19T01:02:47;13.00;42.90
18085;DHT22;9169;44.492;11.372;2023-11-19T01:05:17;13.00;43.00
18085;DHT22;9169;44.492;11.372;2023-11-19T01:07:48;13.00;43.10
18085;DHT22;9169;44.492;11.372;2023-11-19T01:10:19;13.00;43.10
18085;DHT22;9169;44.492;11.372;2023-11-19T01:12:48;13.00;43.20
18085;DHT22;9169;44.492;11.372;2023-11-19T01:15:17;13.00;43.30
18085;DHT22;9169;44.492;11.372;2023-11-19T01:17:49;12.90;43.30
18085;DHT22;9169;44.492;11.372;2023-11-19T01:20:19;12.90;43.30
18085;DHT22;9169;44.492;11.372;2023-11-19T01:22:49;12.90;43.40
18085;DHT22;9169;44.492;11.372;2023-11-19T01:25:17;12.90;43.40
18085;DHT22;9169;44.492;11.372;2023-11-19T01:27:46;12.90;43.40
18085;DHT22;9169;44.492;11.372;2023-11-19T01:30:15;12.90;43.50
18085;DHT22;9169;44.492;11.372;2023-11-19T01:32:44;12.90;43.50
18085;DHT22;9169;44.492;11.372;2023-11-19T01:35:14;12.90;43.60
18085;DHT22;9169;44.492;11.372;2023-11-19T01:37:43;12.90;43.60
18085;DHT22;9169;44.492;11.372;2023-11-19T01:40:12;12.90;43.70
18085;DHT22;9169;44.492;11.372;2023-11-19T01:42:41;12.90;43.80
18085;DHT22;9169;44.492;11.372;2023-11-19T01:45:22;12.90;43.70
18085;DHT22;9169;44.492;11.372;2023-11-19T01:47:55;12.90;43.80
18085;DHT22;9169;44.492;11.372;2023-11-19T01:50:26;12.90;43.80
18085;DHT22;9169;44.492;11.372;2023-11-19T01:52:57;12.90;43.80
18085;DHT22;9169;44.492;11.372;2023-11-19T01:55:27;12.90;43.80
18085;DHT22;9169;44.492;11.372;2023-11-19T01:57:59;12.90;43.80
18085;DHT22;9169;44.492;11.372;2023-11-19T02:00:28;12.90;43.80
18085;DHT22;9169;44.492;11.372;2023-11-19T02:02:57;12.90;43.70
18085;DHT22;9169;44.492;11.372;2023-11-19T02:05:27;12.90;43.80
18085;DHT22;9169;44.492;11.372;2023-11-19T02:07:56;12.90;43.80
18085;DHT22;9169;44.492;11.372;2023-11-19T02:10:24;12.90;43.80
18085;DHT22;9169;44.492;11.372;2023-11-19T02:12:53;12.90;44.00
18085;DHT22;9169;44.492;11.372;2023-11-19T02:15:31;12.90;44.00
18085;DHT22;9169;44.492;11.372;2023-11-19T02:18:23;12.90;44.00
18085;DHT22;9169;44.492;11.372;2023-11-19T02:20:57;12.90;44.10
18085;DHT22;9169;44.492;11.372;2023-11-19T02:23:27;12.90;44.10
18085;DHT22;9169;44.492;11.372;2023-11-19T02:26:05;12.90;44.10
18085;DHT22;9169;44.492;11.372;2023-11-19T02:28:39;12.80;44.10
18085;DHT22;9169;44.492;11.372;2023-11-19T02:31:10;12.80;44.30
18085;DHT22;9169;44.492;11.372;2023-11-19T02:33:39;12.80;44.30
18085;DHT22;9169;44.492;11.372;2023-11-19T02:36:09;12.80;44.30
18085;DHT22;9169;44.492;11.372;2023-11-19T02:38:37;12.80;44.40
18085;DHT22;9169;44.492;11.372;2023-11-19T02:41:06;12.80;44.50
18085;DHT22;9169;44.492;11.372;2023-11-19T02:43:38;12.80;44.50
18085;DHT22;9169;44.492;11.372;2023-11-19T02:46:07;12.80;44.50
18085;DHT22;9169;44.492;11.372;2023-11-19T02:48:39;12.80;44.40
18085;DHT22;9169;44.492;11.372;2023-11-19T02:51:07;12.80;44.50
18085;DHT22;9169;44.492;11.372;2023-11-19T02:53:38;12.80;44.50
18085;DHT22;9169;44.492;11.372;2023-11-19T02:56:07;12.70;44.50
18085;DHT22;9169;44.492;11.372;2023-11-19T02:58:44;12.80;44.60
18085;DHT22;9169;44.492;11.372;2023-11-19T03:01:13;12.70;44.60
18085;DHT22;9169;44.492;11.372;2023-11-19T03:03:50;12.70;44.60
18085;DHT22;9169;44.492;11.372;2023-11-19T03:06:22;12.70;44.50
18085;DHT22;9169;44.492;11.372;2023-11-19T03:08:50;12.70;44.50
18085;DHT22;9169;44.492;11.372;2023-11-19T03:11:19;12.70;44.50
18085;DHT22;9169;44.492;11.372;2023-11-19T03:13:49;12.70;44.50
18085;DHT22;9169;44.492;11.372;2023-11-19T03:16:18;12.60;44.60
18085;DHT22;9169;44.492;11.372;2023-11-19T03:18:47;12.60;44.60
18085;DHT22;9169;44.492;11.372;2023-11-19T03:21:15;12.60;44.60
18085;DHT22;9169;44.492;11.372;2023-11-19T03:23:45;12.60;44.70
18085;DHT22;9169;44.492;11.372;2023-11-19T03:26:13;12.60;44.80
18085;DHT22;9169;44.492;11.372;2023-11-19T03:28:42;12.50;44.80
18085;DHT22;9169;44.492;11.372;2023-11-19T03:31:12;12.50;44.90
18085;DHT22;9169;44.492;11.372;2023-11-19T03:33:41;12.40;45.00
18085;DHT22;9169;44.492;11.372;2023-11-19T03:36:09;12.40;45.00
18085;DHT22;9169;44.492;11.372;2023-11-19T03:38:38;12.40;45.10
18085;DHT22;9169;44.492;11.372;2023-11-19T03:41:13;12.40;45.20
18085;DHT22;9169;44.492;11.372;2023-11-19T03:43:42;12.40;45.20
18085;DHT22;9169;44.492;11.372;2023-11-19T03:46:20;12.40;45.20
18085;DHT22;9169;44.492;11.372;2023-11-19T03:48:49;12.40;45.20
18085;DHT22;9169;44.492;11.372;2023-11-19T03:51:18;12.30;45.20
18085;DHT22;9169;44.492;11.372;2023-11-19T03:53:47;12.30;45.20
18085;DHT22;9169;44.492;11.372;2023-11-19T03:56:16;12.30;45.20
18085;DHT22;9169;44.492;11.372;2023-11-19T03:58:44;12.30;45.40
18085;DHT22;9169;44.492;11.372;2023-11-19T04:01:13;12.30;45.40
18085;DHT22;9169;44.492;11.372;2023-11-19T04:03:43;12.30;45.40
18085;DHT22;9169;44.492;11.372;2023-11-19T04:06:14;12.30;45.40
18085;DHT22;9169;44.492;11.372;2023-11-19T04:08:43;12.30;45.50
18085;DHT22;9169;44.492;11.372;2023-11-19T04:11:12;12.30;45.50
18085;DHT22;9169;44.492;11.372;2023-11-19T04:13:41;12.30;45.50
18085;DHT22;9169;44.492;11.372;2023-11-19T04:16:10;12.30;45.70
18085;DHT22;9169;44.492;11.372;2023-11-19T04:18:39;12.30;45.80
18085;DHT22;9169;44.492;11.372;2023-11-19T04:21:09;12.30;45.80
18085;DHT22;9169;44.492;11.372;2023-11-19T04:23:38;12.30;45.70
18085;DHT22;9169;44.492;11.372;2023-11-19T04:26:07;12.30;45.80
18085;DHT22;9169;44.492;11.372;2023-11-19T04:28:36;12.30;45.80
18085;DHT22;9169;44.492;11.372;2023-11-19T04:31:05;12.30;45.90
18085;DHT22;9169;44.492;11.372;2023-11-19T04:33:33;12.30;45.90
18085;DHT22;9169;44.492;11.372;2023-11-19T04:36:02;12.30;45.90
18085;DHT22;9169;44.492;11.372;2023-11-19T04:38:32;12.30;45.90
18085;DHT22;9169;44.492;11.372;2023-11-19T04:41:01;12.30;46.00
18085;DHT22;9169;44.492;11.372;2023-11-19T04:43:32;12.30;46.20
18085;DHT22;9169;44.492;11.372;2023-11-19T04:46:03;12.30;46.20
18085;DHT22;9169;44.492;11.372;2023-11-19T04:48:32;12.30;46.20
18085;DHT22;9169;44.492;11.372;2023-11-19T04:51:05;12.30;46.20
18085;DHT22;9169;44.492;11.372;2023-11-19T04:53:35;12.30;46.20
18085;DHT22;9169;44.492;11.372;2023-11-19T04:56:08;12.30;46.20
18085;DHT22;9169;44.492;11.372;2023-11-19T04:58:37;12.30;46.30
18085;DHT22;9169;44.492;11.372;2023-11-19T05:01:06;12.30;46.30
18085;DHT22;9169;44.492;11.372;2023-11-19T05:03:41;12.30;46.40
18085;DHT22;9169;44.492;11.372;2023-11-19T05:06:10;12.30;46.40
18085;DHT22;9169;44.492;11.372;2023-11-19T05:08:40;12.30;46.50
18085;DHT22;9169;44.492;11.372;2023-11-19T05:11:08;12.30;46.60
18085;DHT22;9169;44.492;11.372;2023-11-19T05:13:39;12.20;46.60
18085;DHT22;9169;44.492;11.372;2023-11-19T05:16:07;12.20;46.60
18085;DHT22;9169;44.492;11.372;2023-11-19T05:18:37;12.20;46.60
18085;DHT22;9169;44.492;11.372;2023-11-19T05:21:06;12.20;46.70
18085;DHT22;9169;44.492;11.372;2023-11-19T05:23:35;12.20;46.70
18085;DHT22;9169;44.492;11.372;2023-11-19T05:26:08;12.30;46.80
18085;DHT22;9169;44.492;11.372;2023-11-19T05:28:38;12.20;46.70
18085;DHT22;9169;44.492;11.372;2023-11-19T05:31:07;12.20;46.70
18085;DHT22;9169;44.492;11.372;2023-11-19T05:33:36;12.20;46.70
18085;DHT22;9169;44.492;11.372;2023-11-19T05:36:05;12.30;46.70
18085;DHT22;9169;44.492;11.372;2023-11-19T05:38:35;12.30;46.70
18085;DHT22;9169;44.492;11.372;2023-11-19T05:41:04;12.30;46.70
18085;DHT22;9169;44.492;11.372;2023-11-19T05:43:34;12.30;46.80
18085;DHT22;9169;44.492;11.372;2023-11-19T05:46:03;12.30;46.80
18085;DHT22;9169;44.492;11.372;2023-11-19T05:48:45;12.30;46.90
18085;DHT22;9169;44.492;11.372;2023-11-19T05:51:14;12.30;46.90
18085;DHT22;9169;44.492;11.372;2023-11-19T05:53:43;12.20;46.90
18085;DHT22;9169;44.492;11.372;2023-11-19T05:56:12;12.20;46.90
18085;DHT22;9169;44.492;11.372;2023-11-19T05:58:44;12.20;46.90
18085;DHT22;9169;44.492;11.372;2023-11-19T06:01:13;12.30;46.90
18085;DHT22;9169;44.492;11.372;2023-11-19T06:03:41;12.20;46.90
18085;DHT22;9169;44.492;11.372;2023-11-19T06:06:14;12.20;46.90
18085;DHT22;9169;44.492;11.372;2023-11-19T06:08:43;12.20;47.00
18085;DHT22;9169;44.492;11.372;2023-11-19T06:11:12;12.20;47.10
18085;DHT22;9169;44.492;11.372;2023-11-19T06:13:46;12.20;47.20
18085;DHT22;9169;44.492;11.372;2023-11-19T06:16:18;12.20;47.20
18085;DHT22;9169;44.492;11.372;2023-11-19T06:18:46;12.20;47.10
18085;DHT22;9169;44.492;11.372;2023-11-19T06:21:15;12.20;47.10
18085;DHT22;9169;44.492;11.372;2023-11-19T06:23:44;12.20;47.10
18085;DHT22;9169;44.492;11.372;2023-11-19T06:26:13;12.20;47.10
18085;DHT22;9169;44.492;11.372;2023-11-19T06:28:42;12.20;47.10
18085;DHT22;9169;44.492;11.372;2023-11-19T06:31:13;12.20;47.10
18085;DHT22;9169;44.492;11.372;2023-11-19T06:33:43;12.20;47.60
18085;DHT22;9169;44.492;11.372;2023-11-19T06:36:14;12.20;47.10
18085;DHT22;9169;44.492;11.372;2023-11-19T06:38:44;12.20;47.20
18085;DHT22;9169;44.492;11.372;2023-11-19T06:41:13;12.20;47.30
18085;DHT22;9169;44.492;11.372;2023-11-19T06:43:42;12.20;47.20
18085;DHT22;9169;44.492;11.372;2023-11-19T06:46:19;12.20;47.30
18085;DHT22;9169;44.492;11.372;2023-11-19T06:48:48;12.20;47.20
18085;DHT22;9169;44.492;11.372;2023-11-19T06:51:16;12.20;47.20
18085;DHT22;9169;44.492;11.372;2023-11-19T06:53:45;12.20;47.30
18085;DHT22;9169;44.492;11.372;2023-11-19T06:56:20;12.20;47.40
18085;DHT22;9169;44.492;11.372;2023-11-19T06:58:49;12.20;47.40
18085;DHT22;9169;44.492;11.372;2023-11-19T07:01:19;12.20;47.50
18085;DHT22;9169;44.492;11.372;2023-11-19T07:03:48;12.10;47.50
18085;DHT22;9169;44.492;11.372;2023-11-19T07:06:18;12.20;47.60
18085;DHT22;9169;44.492;11.372;2023-11-19T07:09:00;12.20;47.70
18085;DHT22;9169;44.492;11.372;2023-11-19T07:11:37;12.20;47.80
18085;DHT22;9169;44.492;11.372;2023-11-19T07:14:06;12.20;47.80
18085;DHT22;9169;44.492;11.372;2023-11-19T07:16:36;12.20;47.90
18085;DHT22;9169;44.492;11.372;2023-11-19T07:19:06;12.20;48.00
18085;DHT22;9169;44.492;11.372;2023-11-19T07:21:35;12.30;48.20
18085;DHT22;9169;44.492;11.372;2023-11-19T07:24:07;12.30;48.20
18085;DHT22;9169;44.492;11.372;2023-11-19T07:26:36;12.30;48.30
18085;DHT22;9169;44.492;11.372;2023-11-19T07:29:05;12.30;48.30
18085;DHT22;9169;44.492;11.372;2023-11-19T07:31:36;12.30;48.40
18085;DHT22;9169;44.492;11.372;2023-11-19T07:34:05;12.40;48.60
18085;DHT22;9169;44.492;11.372;2023-11-19T07:36:34;12.40;48.70
18085;DHT22;9169;44.492;11.372;2023-11-19T07:39:03;12.40;48.70
18085;DHT22;9169;44.492;11.372;2023-11-19T07:41:32;12.50;48.80
18085;DHT22;9169;44.492;11.372;2023-11-19T07:44:05;12.50;48.80
18085;DHT22;9169;44.492;11.372;2023-11-19T07:46:35;12.60;49.00
18085;DHT22;9169;44.492;11.372;2023-11-19T07:49:04;12.60;49.10
18085;DHT22;9169;44.492;11.372;2023-11-19T07:51:33;12.60;49.10
18085;DHT22;9169;44.492;11.372;2023-11-19T07:54:02;12.60;49.10
18085;DHT22;9169;44.492;11.372;2023-11-19T07:56:32;12.70;49.20
18085;DHT22;9169;44.492;11.372;2023-11-19T07:59:01;12.70;49.30
18085;DHT22;9169;44.492;11.372;2023-11-19T08:01:30;12.80;49.40
18085;DHT22;9169;44.492;11.372;2023-11-19T08:04:00;12.80;49.40
18085;DHT22;9169;44.492;11.372;2023-11-19T08:06:29;12.80;49.40
18085;DHT22;9169;44.492;11.372;2023-11-19T08:08:58;12.90;49.50
18085;DHT22;9169;44.492;11.372;2023-11-19T08:11:26;12.90;49.50
18085;DHT22;9169;44.492;11.372;2023-11-19T08:13:55;13.00;49.70
18085;DHT22;9169;44.492;11.372;2023-11-19T08:16:24;13.00;49.80
18085;DHT22;9169;44.492;11.372;2023-11-19T08:18:53;13.20;51.20
18085;DHT22;9169;44.492;11.372;2023-11-19T08:21:23;13.60;53.60
18085;DHT22;9169;44.492;11.372;2023-11-19T08:26:21;14.80;56.00
18085;DHT22;9169;44.492;11.372;2023-11-19T08:28:49;15.60;56.80
18085;DHT22;9169;44.492;11.372;2023-11-19T08:31:19;16.30;56.90
18085;DHT22;9169;44.492;11.372;2023-11-19T08:33:47;16.90;56.10
18085;DHT22;9169;44.492;11.372;2023-11-19T08:36:16;17.30;54.30
18085;DHT22;9169;44.492;11.372;2023-11-19T08:38:46;17.60;53.10
18085;DHT22;9169;44.492;11.372;2023-11-19T08:41:16;17.80;52.50
18085;DHT22;9169;44.492;11.372;2023-11-19T08:43:45;18.10;52.10
18085;DHT22;9169;44.492;11.372;2023-11-19T08:46:14;18.40;52.00
18085;DHT22;9169;44.492;11.372;2023-11-19T08:48:42;18.90;52.20
18085;DHT22;9169;44.492;11.372;2023-11-19T08:51:11;19.40;50.80
18085;DHT22;9169;44.492;11.372;2023-11-19T08:53:40;19.80;49.50
18085;DHT22;9169;44.492;11.372;2023-11-19T08:56:12;20.10;48.00
18085;DHT22;9169;44.492;11.372;2023-11-19T08:58:41;20.40;46.50
18085;DHT22;9169;44.492;11.372;2023-11-19T09:01:10;20.50;45.00
18085;DHT22;9169;44.492;11.372;2023-11-19T09:03:38;20.50;43.60
18085;DHT22;9169;44.492;11.372;2023-11-19T09:06:08;20.30;42.60
18085;DHT22;9169;44.492;11.372;2023-11-19T09:08:36;20.00;41.90
18085;DHT22;9169;44.492;11.372;2023-11-19T09:11:07;19.80;41.40
18085;DHT22;9169;44.492;11.372;2023-11-19T09:13:41;19.50;40.80
18085;DHT22;9169;44.492;11.372;2023-11-19T09:16:11;19.20;40.40
18085;DHT22;9169;44.492;11.372;2023-11-19T09:18:40;19.00;40.20
18085;DHT22;9169;44.492;11.372;2023-11-19T09:21:10;18.70;40.10
18085;DHT22;9169;44.492;11.372;2023-11-19T09:23:39;18.50;40.00
18085;DHT22;9169;44.492;11.372;2023-11-19T09:26:09;18.30;39.90
18085;DHT22;9169;44.492;11.372;2023-11-19T09:28:38;18.00;39.40
18085;DHT22;9169;44.492;11.372;2023-11-19T09:31:14;17.80;39.30
18085;DHT22;9169;44.492;11.372;2023-11-19T09:33:43;17.60;39.00
18085;DHT22;9169;44.492;11.372;2023-11-19T09:36:13;17.40;39.10
18085;DHT22;9169;44.492;11.372;2023-11-19T09:38:44;17.30;39.20
18085;DHT22;9169;44.492;11.372;2023-11-19T09:41:12;17.10;39.20
18085;DHT22;9169;44.492;11.372;2023-11-19T09:43:41;17.00;39.30
18085;DHT22;9169;44.492;11.372;2023-11-19T09:46:10;16.80;39.40
18085;DHT22;9169;44.492;11.372;2023-11-19T09:48:43;16.80;39.50
18085;DHT22;9169;44.492;11.372;2023-11-19T09:51:13;16.70;39.70
18085;DHT22;9169;44.492;11.372;2023-11-19T09:53:41;16.60;39.80
18085;DHT22;9169;44.492;11.372;2023-11-19T09:56:12;16.50;39.90
18085;DHT22;9169;44.492;11.372;2023-11-19T09:58:41;16.40;40.00
18085;DHT22;9169;44.492;11.372;2023-11-19T10:01:10;16.40;40.10
18085;DHT22;9169;44.492;11.372;2023-11-19T10:03:47;16.30;39.90
18085;DHT22;9169;44.492;11.372;2023-11-19T10:06:16;16.20;39.60
18085;DHT22;9169;44.492;11.372;2023-11-19T10:08:46;16.20;39.70
18085;DHT22;9169;44.492;11.372;2023-11-19T10:11:14;16.10;39.70
18085;DHT22;9169;44.492;11.372;2023-11-19T10:13:43;16.10;39.70
18085;DHT22;9169;44.492;11.372;2023-11-19T10:16:15;16.10;39.90
18085;DHT22;9169;44.492;11.372;2023-11-19T10:18:45;16.10;40.10
18085;DHT22;9169;44.492;11.372;2023-11-19T10:21:14;16.00;39.90
18085;DHT22;9169;44.492;11.372;2023-11-19T10:23:52;16.00;40.00
18085;DHT22;9169;44.492;11.372;2023-11-19T10:26:21;16.00;40.20
18085;DHT22;9169;44.492;11.372;2023-11-19T10:28:50;16.00;40.40
18085;DHT22;9169;44.492;11.372;2023-11-19T10:31:19;15.90;40.40
18085;DHT22;9169;44.492;11.372;2023-11-19T10:33:53;15.90;40.30
18085;DHT22;9169;44.492;11.372;2023-11-19T10:36:22;15.90;40.30
18085;DHT22;9169;44.492;11.372;2023-11-19T10:38:53;15.90;40.50
18085;DHT22;9169;44.492;11.372;2023-11-19T10:41:28;15.90;40.50
18085;DHT22;9169;44.492;11.372;2023-11-19T10:43:57;15.80;40.40
18085;DHT22;9169;44.492;11.372;2023-11-19T10:46:38;15.90;40.50
18085;DHT22;9169;44.492;11.372;2023-11-19T10:49:09;15.90;40.40
18085;DHT22;9169;44.492;11.372;2023-11-19T10:51:44;15.90;40.40
18085;DHT22;9169;44.492;11.372;2023-11-19T10:54:15;15.90;40.50
18085;DHT22;9169;44.492;11.372;2023-11-19T10:56:48;15.90;40.40
18085;DHT22;9169;44.492;11.372;2023-11-19T10:59:21;15.90;40.20
18085;DHT22;9169;44.492;11.372;2023-11-19T11:01:53;15.90;40.00
18085;DHT22;9169;44.492;11.372;2023-11-19T11:04:26;16.00;39.90
18085;DHT22;9169;44.492;11.372;2023-11-19T11:07:00;16.00;39.90
18085;DHT22;9169;44.492;11.372;2023-11-19T11:09:30;16.00;40.00
18085;DHT22;9169;44.492;11.372;2023-11-19T11:12:00;16.00;40.00
18085;DHT22;9169;44.492;11.372;2023-11-19T11:14:31;16.00;39.50
18085;DHT22;9169;44.492;11.372;2023-11-19T11:17:03;16.00;39.60
18085;DHT22;9169;44.492;11.372;2023-11-19T11:19:37;16.00;39.80
18085;DHT22;9169;44.492;11.372;2023-11-19T11:22:07;16.00;39.70
18085;DHT22;9169;44.492;11.372;2023-11-19T11:27:55;16.00;39.20
18085;DHT22;9169;44.492;11.372;2023-11-19T11:30:35;16.10;39.50
18085;DHT22;9169;44.492;11.372;2023-11-19T11:33:20;16.10;39.40
18085;DHT22;9169;44.492;11.372;2023-11-19T11:35:58;16.10;39.40
18085;DHT22;9169;44.492;11.372;2023-11-19T11:38:35;16.20;39.50
18085;DHT22;9169;44.492;11.372;2023-11-19T11:41:19;16.20;39.50
18085;DHT22;9169;44.492;11.372;2023-11-19T11:43:51;16.30;39.40
18085;DHT22;9169;44.492;11.372;2023-11-19T11:46:54;16.30;39.40
18085;DHT22;9169;44.492;11.372;2023-11-19T11:49:25;16.30;39.20
18085;DHT22;9169;44.492;11.372;2023-11-19T11:52:03;16.30;39.40
18085;DHT22;9169;44.492;11.372;2023-11-19T11:54:32;16.40;39.50
18085;DHT22;9169;44.492;11.372;2023-11-19T11:57:03;16.40;39.40
18085;DHT22;9169;44.492;11.372;2023-11-19T11:59:50;16.50;39.30
18085;DHT22;9169;44.492;11.372;2023-11-19T12:02:20;16.50;39.30
18085;DHT22;9169;44.492;11.372;2023-11-19T12:04:51;16.50;39.50
18085;DHT22;9169;44.492;11.372;2023-11-19T12:07:23;16.60;39.30
18085;DHT22;9169;44.492;11.372;2023-11-19T12:09:53;16.60;39.20
18085;DHT22;9169;44.492;11.372;2023-11-19T12:12:27;16.60;39.20
18085;DHT22;9169;44.492;11.372;2023-11-19T12:15:06;16.60;39.10
18085;DHT22;9169;44.492;11.372;2023-11-19T12:17:51;16.70;38.80
18085;DHT22;9169;44.492;11.372;2023-11-19T12:20:21;16.70;38.70
18085;DHT22;9169;44.492;11.372;2023-11-19T12:22:54;16.70;38.90
18085;DHT22;9169;44.492;11.372;2023-11-19T12:25:23;16.80;38.60
18085;DHT22;9169;44.492;11.372;2023-11-19T12:27:52;16.80;38.60
18085;DHT22;9169;44.492;11.372;2023-11-19T12:30:22;16.60;38.40
18085;DHT22;9169;44.492;11.372;2023-11-19T12:32:52;16.80;38.60
18085;DHT22;9169;44.492;11.372;2023-11-19T12:35:22;16.80;38.60
18085;DHT22;9169;44.492;11.372;2023-11-19T12:37:53;16.80;38.40
18085;DHT22;9169;44.492;11.372;2023-11-19T12:40:23;16.90;39.00
18085;DHT22;9169;44.492;11.372;2023-11-19T12:42:53;16.90;38.60
18085;DHT22;9169;44.492;11.372;2023-11-19T12:45:22;16.90;38.70
18085;DHT22;9169;44.492;11.372;2023-11-19T12:48:04;17.00;39.00
18085;DHT22;9169;44.492;11.372;2023-11-19T12:50:51;17.00;39.00
18085;DHT22;9169;44.492;11.372;2023-11-19T12:53:22;17.00;38.80
18085;DHT22;9169;44.492;11.372;2023-11-19T12:55:51;17.00;38.80
18085;DHT22;9169;44.492;11.372;2023-11-19T12:58:29;17.10;38.80
18085;DHT22;9169;44.492;11.372;2023-11-19T13:01:03;17.10;38.90
18085;DHT22;9169;44.492;11.372;2023-11-19T13:03:34;17.00;39.00
18085;DHT22;9169;44.492;11.372;2023-11-19T13:06:04;17.10;39.10
18085;DHT22;9169;44.492;11.372;2023-11-19T13:08:39;17.20;39.40
18085;DHT22;9169;44.492;11.372;2023-11-19T13:11:09;17.20;39.50
18085;DHT22;9169;44.492;11.372;2023-11-19T13:13:56;17.20;39.70
18085;DHT22;9169;44.492;11.372;2023-11-19T13:16:26;17.20;39.60
18085;DHT22;9169;44.492;11.372;2023-11-19T13:18:55;17.20;39.70
18085;DHT22;9169;44.492;11.372;2023-11-19T13:21:25;17.20;39.80
18085;DHT22;9169;44.492;11.372;2023-11-19T13:23:55;17.30;40.00
18085;DHT22;9169;44.492;11.372;2023-11-19T13:26:24;17.30;40.40
18085;DHT22;9169;44.492;11.372;2023-11-19T13:28:52;17.60;43.10
18085;DHT22;9169;44.492;11.372;2023-11-19T13:31:21;18.30;45.10
18085;DHT22;9169;44.492;11.372;2023-11-19T13:33:49;19.30;45.90
18085;DHT22;9169;44.492;11.372;2023-11-19T13:36:18;20.30;46.60
18085;DHT22;9169;44.492;11.372;2023-11-19T13:38:47;21.20;45.40
18085;DHT22;9169;44.492;11.372;2023-11-19T13:41:17;21.90;43.90
18085;DHT22;9169;44.492;11.372;2023-11-19T13:43:46;22.30;42.50
18085;DHT22;9169;44.492;11.372;2023-11-19T13:46:15;22.40;41.10
18085;DHT22;9169;44.492;11.372;2023-11-19T13:48:44;22.50;40.30
18085;DHT22;9169;44.492;11.372;2023-11-19T13:51:13;22.40;39.50
18085;DHT22;9169;44.492;11.372;2023-11-19T13:53:42;22.30;39.00
18085;DHT22;9169;44.492;11.372;2023-11-19T13:56:14;22.10;38.50
18085;DHT22;9169;44.492;11.372;2023-11-19T13:58:44;21.90;38.30
18085;DHT22;9169;44.492;11.372;2023-11-19T14:01:13;21.70;37.80
18085;DHT22;9169;44.492;11.372;2023-11-19T14:03:42;21.50;37.60
18085;DHT22;9169;44.492;11.372;2023-11-19T14:06:11;21.30;37.60
18085;DHT22;9169;44.492;11.372;2023-11-19T14:08:39;21.10;37.60
18085;DHT22;9169;44.492;11.372;2023-11-19T14:11:08;20.90;37.60
18085;DHT22;9169;44.492;11.372;2023-11-19T14:13:37;20.70;37.70
18085;DHT22;9169;44.492;11.372;2023-11-19T14:16:07;20.50;37.70
18085;DHT22;9169;44.492;11.372;2023-11-19T14:18:36;20.30;37.60
18085;DHT22;9169;44.492;11.372;2023-11-19T14:21:06;20.10;37.70
18085;DHT22;9169;44.492;11.372;2023-11-19T14:23:34;20.00;37.60
18085;DHT22;9169;44.492;11.372;2023-11-19T14:26:04;19.80;37.70
18085;DHT22;9169;44.492;11.372;2023-11-19T14:28:34;19.70;37.80
18085;DHT22;9169;44.492;11.372;2023-11-19T14:31:22;19.60;38.00
18085;DHT22;9169;44.492;11.372;2023-11-19T14:33:51;19.40;38.10
18085;DHT22;9169;44.492;11.372;2023-11-19T14:36:23;19.30;38.20
18085;DHT22;9169;44.492;11.372;2023-11-19T14:38:52;19.10;38.30
18085;DHT22;9169;44.492;11.372;2023-11-19T14:41:21;19.00;38.40
18085;DHT22;9169;44.492;11.372;2023-11-19T14:43:50;18.90;38.50
18085;DHT22;9169;44.492;11.372;2023-11-19T14:46:18;18.80;38.60
18085;DHT22;9169;44.492;11.372;2023-11-19T14:48:48;18.70;38.60
18085;DHT22;9169;44.492;11.372;2023-11-19T14:51:20;18.70;38.70
18085;DHT22;9169;44.492;11.372;2023-11-19T14:53:51;18.60;38.80
18085;DHT22;9169;44.492;11.372;2023-11-19T14:56:22;18.50;38.70
18085;DHT22;9169;44.492;11.372;2023-11-19T14:58:50;18.40;38.70
18085;DHT22;9169;44.492;11.372;2023-11-19T15:01:22;18.40;38.80
18085;DHT22;9169;44.492;11.372;2023-11-19T15:03:52;18.30;38.90
18085;DHT22;9169;44.492;11.372;2023-11-19T15:06:23;18.20;40.20
18085;DHT22;9169;44.492;11.372;2023-11-19T15:08:53;18.10;38.80
18085;DHT22;9169;44.492;11.372;2023-11-19T15:11:21;18.10;38.90
18085;DHT22;9169;44.492;11.372;2023-11-19T15:13:51;18.00;38.90
18085;DHT22;9169;44.492;11.372;2023-11-19T15:16:20;17.90;39.00
18085;DHT22;9169;44.492;11.372;2023-11-19T15:18:59;17.90;39.20
18085;DHT22;9169;44.492;11.372;2023-11-19T15:21:30;17.80;39.30
18085;DHT22;9169;44.492;11.372;2023-11-19T15:24:00;17.80;39.50
18085;DHT22;9169;44.492;11.372;2023-11-19T15:26:31;17.70;39.60
18085;DHT22;9169;44.492;11.372;2023-11-19T15:29:00;17.70;39.80
18085;DHT22;9169;44.492;11.372;2023-11-19T15:31:30;17.60;39.90
18085;DHT22;9169;44.492;11.372;2023-11-19T15:34:00;17.50;40.00
18085;DHT22;9169;44.492;11.372;2023-11-19T15:36:30;17.50;40.00
18085;DHT22;9169;44.492;11.372;2023-11-19T15:38:59;17.40;40.10
18085;DHT22;9169;44.492;11.372;2023-11-19T15:41:27;17.40;40.20
18085;DHT22;9169;44.492;11.372;2023-11-19T15:43:57;17.30;40.30
18085;DHT22;9169;44.492;11.372;2023-11-19T15:46:26;17.30;40.40
18085;DHT22;9169;44.492;11.372;2023-11-19T15:48:55;17.20;40.50
18085;DHT22;9169;44.492;11.372;2023-11-19T15:51:25;17.20;40.60
18085;DHT22;9169;44.492;11.372;2023-11-19T15:53:53;17.10;40.60
18085;DHT22;9169;44.492;11.372;2023-11-19T15:56:22;17.10;40.70